createdAt,value
2022-08-10T00:01:51.307Z,17.56
2022-08-10T00:04:23.493Z,17.47
2022-08-10T00:06:55.588Z,17.47
2022-08-10T00:09:24.013Z,17.45
2022-08-10T00:11:51.360Z,17.39
2022-08-10T00:14:18.905Z,17.42
2022-08-10T00:16:45.865Z,17.37
2022-08-10T00:19:13.097Z,17.29
2022-08-10T00:21:46.265Z,17.35
2022-08-10T00:24:13.784Z,17.29
2022-08-10T00:28:01.292Z,17.24
2022-08-10T00:29:27.298Z,17.16
2022-08-10T00:31:58.342Z,17.14
2022-08-10T00:34:32.522Z,17.13
2022-08-10T00:37:00.422Z,17.17
2022-08-10T00:39:29.462Z,17.16
2022-08-10T00:42:06.587Z,17.21
2022-08-10T00:44:45.637Z,17.12
2022-08-10T00:47:35.886Z,17.11
2022-08-10T00:50:02.375Z,17.08
2022-08-10T00:52:31.058Z,17.03
2022-08-10T00:55:00.479Z,17.00
2022-08-10T00:57:28.022Z,17.00
2022-08-10T00:59:58.778Z,17.02
2022-08-10T01:02:31.911Z,16.98
2022-08-10T01:05:04.463Z,17.12
2022-08-10T01:08:02.938Z,17.11
2022-08-10T01:11:03.006Z,17.00
2022-08-10T01:13:48.821Z,16.96
2022-08-10T01:16:42.365Z,16.93
2022-08-10T01:19:37.151Z,16.87
2022-08-10T01:22:53.692Z,16.84
2022-08-10T01:26:30.478Z,16.87
2022-08-10T01:29:23.919Z,16.82
2022-08-10T01:31:56.351Z,16.85
2022-08-10T01:34:34.175Z,16.72
2022-08-10T01:37:09.566Z,16.72
2022-08-10T01:39:45.035Z,16.82
2022-08-10T01:42:18.868Z,16.83
2022-08-10T01:44:55.543Z,16.71
2022-08-10T01:47:49.114Z,16.68
2022-08-10T01:50:59.755Z,16.61
2022-08-10T01:53:41.152Z,16.49
2022-08-10T01:56:13.427Z,16.41
2022-08-10T01:58:43.762Z,16.40
2022-08-10T02:01:17.479Z,16.40
2022-08-10T02:04:04.982Z,16.37
2022-08-10T02:06:39.952Z,16.42
2022-08-10T02:09:08.990Z,16.39
2022-08-10T02:12:05.762Z,16.51
2022-08-10T02:14:34.291Z,16.40
2022-08-10T02:18:00.250Z,16.46
2022-08-10T02:20:11.227Z,16.56
2022-08-10T02:22:41.588Z,16.67
2022-08-10T02:25:42.002Z,16.77
2022-08-10T02:28:00.154Z,16.78
2022-08-10T02:30:30.769Z,16.82
2022-08-10T02:33:01.520Z,16.77
2022-08-10T02:35:37.322Z,16.84
2022-08-10T02:38:58.325Z,16.83
2022-08-10T02:45:01.109Z,16.77
2022-08-10T02:45:26.454Z,16.76
2022-08-10T02:47:51.567Z,16.67
2022-08-10T02:50:33.511Z,16.66
2022-08-10T02:53:54.438Z,16.61
2022-08-10T02:56:43.408Z,16.55
2022-08-10T02:59:39.646Z,16.51
2022-08-10T03:02:13.464Z,16.46
2022-08-10T03:04:57.040Z,16.46
2022-08-10T03:07:44.696Z,16.46
2022-08-10T03:10:21.551Z,16.37
2022-08-10T03:12:55.204Z,16.38
2022-08-10T03:15:25.225Z,16.26
2022-08-10T03:17:57.842Z,16.18
2022-08-10T03:20:53.996Z,16.14
2022-08-10T03:23:25.628Z,16.18
2022-08-10T03:25:57.371Z,16.11
2022-08-10T03:28:28.572Z,16.04
2022-08-10T03:30:58.293Z,16.05
2022-08-10T03:33:31.135Z,16.02
2022-08-10T03:36:41.559Z,15.93
2022-08-10T03:38:48.661Z,15.99
2022-08-10T03:41:19.075Z,15.94
2022-08-10T03:43:52.041Z,16.02
2022-08-10T03:46:24.449Z,16.05
2022-08-10T03:48:56.627Z,16.04
2022-08-10T03:51:26.913Z,16.02
2022-08-10T03:54:02.805Z,15.99
2022-08-10T03:56:36.785Z,16.01
2022-08-10T03:59:05.405Z,15.97
2022-08-10T04:02:46.580Z,15.93
2022-08-10T04:04:24.134Z,15.95
2022-08-10T04:06:58.396Z,15.85
2022-08-10T04:09:54.191Z,15.77
2022-08-10T04:12:23.637Z,15.71
2022-08-10T04:14:52.898Z,15.75
2022-08-10T04:18:04.053Z,15.65
2022-08-10T04:20:29.956Z,15.65
2022-08-10T04:23:07.900Z,15.69
2022-08-10T04:25:36.502Z,15.74
2022-08-10T04:28:05.268Z,15.75
2022-08-10T04:30:36.066Z,15.73
2022-08-10T04:33:06.998Z,15.69
2022-08-10T04:35:35.840Z,15.64
2022-08-10T04:38:04.554Z,15.54
2022-08-10T04:40:31.953Z,15.55
2022-08-10T04:43:13.699Z,15.57
2022-08-10T04:45:48.931Z,15.54
2022-08-10T04:48:40.314Z,15.44
2022-08-10T04:51:19.116Z,15.59
2022-08-10T04:54:03.748Z,15.59
2022-08-10T04:56:39.269Z,15.65
2022-08-10T04:59:09.711Z,15.77
2022-08-10T05:02:22.023Z,15.83
2022-08-10T05:04:34.701Z,15.69
2022-08-10T05:07:16.231Z,15.70
2022-08-10T05:10:03.700Z,15.78
2022-08-10T05:12:37.652Z,15.83
2022-08-10T05:15:11.784Z,15.92
2022-08-10T05:17:40.202Z,15.99
2022-08-10T05:20:10.565Z,16.07
2022-08-10T05:22:44.019Z,16.15
2022-08-10T05:25:16.884Z,16.23
2022-08-10T05:27:45.436Z,16.33
2022-08-10T05:30:20.442Z,16.50
2022-08-10T05:32:56.188Z,16.68
2022-08-10T05:35:55.397Z,16.86
2022-08-10T05:38:18.028Z,17.00
2022-08-10T05:40:46.944Z,17.13
2022-08-10T05:43:20.573Z,17.23
2022-08-10T05:46:19.688Z,17.30
2022-08-10T05:48:42.183Z,17.41
2022-08-10T05:51:27.450Z,17.71
2022-08-10T05:54:02.765Z,17.86
2022-08-10T05:56:55.207Z,17.95
2022-08-10T06:00:35.089Z,18.08
2022-08-10T06:02:41.846Z,18.23
2022-08-10T06:05:17.550Z,18.30
2022-08-10T06:07:57.709Z,18.53
2022-08-10T06:10:32.365Z,18.52
2022-08-10T06:13:29.801Z,18.66
2022-08-10T06:16:06.214Z,18.98
2022-08-10T06:18:33.582Z,19.04
2022-08-10T06:21:02.080Z,19.20
2022-08-10T06:23:30.708Z,19.24
2022-08-10T06:26:11.039Z,19.42
2022-08-10T06:29:02.897Z,19.61
2022-08-10T06:31:46.680Z,19.88
2022-08-10T06:34:38.160Z,20.11
2022-08-10T06:37:08.119Z,20.16
2022-08-10T06:39:36.927Z,20.46
2022-08-10T06:42:37.949Z,20.71
2022-08-10T06:45:22.568Z,20.81
2022-08-10T06:47:53.736Z,20.67
2022-08-10T06:50:56.016Z,20.99
2022-08-10T06:53:52.800Z,21.03
2022-08-10T06:56:38.015Z,21.65
2022-08-10T06:59:21.798Z,21.75
2022-08-10T07:01:58.613Z,21.53
2022-08-10T07:04:35.400Z,21.84
2022-08-10T07:07:06.611Z,22.30
2022-08-10T07:09:40.114Z,22.52
2022-08-10T07:12:13.247Z,22.86
2022-08-10T07:14:45.058Z,22.95
2022-08-10T07:17:21.657Z,23.39
2022-08-10T07:20:04.257Z,23.34
2022-08-10T07:23:11.094Z,23.08
2022-08-10T07:25:27.155Z,23.03
2022-08-10T07:28:00.512Z,23.04
2022-08-10T07:30:32.296Z,23.28
2022-08-10T07:33:02.820Z,22.93
2022-08-10T07:35:42.736Z,23.00
2022-08-10T07:38:26.985Z,23.66
2022-08-10T07:40:55.108Z,23.24
2022-08-10T07:43:27.937Z,23.70
2022-08-10T07:45:57.680Z,23.31
2022-08-10T07:48:36.982Z,23.64
2022-08-10T07:51:07.275Z,23.44
2022-08-10T07:53:43.715Z,23.60
2022-08-10T07:56:26.341Z,23.24
2022-08-10T07:59:14.794Z,23.27
2022-08-10T08:01:51.771Z,22.85
2022-08-10T08:04:22.553Z,23.04
2022-08-10T08:06:51.302Z,23.32
2022-08-10T08:09:21.709Z,23.42
2022-08-10T08:11:51.603Z,23.10
2022-08-10T08:14:22.203Z,22.95
2022-08-10T08:16:53.367Z,23.04
2022-08-10T08:19:37.908Z,22.76
2022-08-10T08:24:09.316Z,23.08
2022-08-10T08:24:59.432Z,23.52
2022-08-10T08:27:28.543Z,23.68
2022-08-10T08:29:56.150Z,23.79
2022-08-10T08:32:27.637Z,23.79
2022-08-10T08:35:04.398Z,24.18
2022-08-10T08:38:29.753Z,24.32
2022-08-10T08:40:33.565Z,24.55
2022-08-10T08:43:21.499Z,24.64
2022-08-10T08:46:38.536Z,24.66
2022-08-10T08:50:05.230Z,25.02
2022-08-10T08:52:45.661Z,24.53
2022-08-10T08:56:03.922Z,25.02
2022-08-10T08:58:50.241Z,25.09
2022-08-10T09:01:37.953Z,25.17
2022-08-10T09:04:33.978Z,25.24
2022-08-10T09:08:01.005Z,24.87
2022-08-10T09:10:54.326Z,24.72
2022-08-10T09:13:57.707Z,25.46
2022-08-10T09:16:57.767Z,25.53
2022-08-10T09:19:48.475Z,25.56
2022-08-10T09:22:37.579Z,25.55
2022-08-10T09:25:32.339Z,25.87
2022-08-10T09:28:07.422Z,25.67
2022-08-10T09:31:10.844Z,25.56
2022-08-10T09:36:26.170Z,26.22
2022-08-10T09:37:00.541Z,26.11
2022-08-10T09:40:48.484Z,26.36
2022-08-10T09:43:07.622Z,26.13
2022-08-10T09:46:04.208Z,25.95
2022-08-10T09:48:45.641Z,26.21
2022-08-10T09:51:47.712Z,25.69
2022-08-10T09:54:49.012Z,24.86
2022-08-10T09:57:55.033Z,25.66
2022-08-10T10:00:35.579Z,26.18
2022-08-10T10:03:17.816Z,25.86
2022-08-10T10:06:02.883Z,26.35
2022-08-10T10:08:37.347Z,26.45
2022-08-10T10:12:16.743Z,26.41
2022-08-10T10:15:24.825Z,26.78
2022-08-10T10:18:07.622Z,26.85
2022-08-10T10:21:01.492Z,27.40
2022-08-10T10:24:21.619Z,27.50
2022-08-10T10:26:59.901Z,27.29
2022-08-10T10:30:03.506Z,26.46
2022-08-10T10:33:13.273Z,27.23
2022-08-10T10:35:53.010Z,26.59
2022-08-10T10:38:27.070Z,26.94
2022-08-10T10:41:30.214Z,26.71
2022-08-10T10:44:46.913Z,26.68
2022-08-10T10:47:55.420Z,26.63
2022-08-10T10:51:10.893Z,26.04
2022-08-10T10:54:00.040Z,26.88
2022-08-10T10:56:56.853Z,27.11
2022-08-10T10:59:57.606Z,27.06
2022-08-10T11:03:18.792Z,26.95
2022-08-10T11:06:01.463Z,26.85
2022-08-10T11:08:41.064Z,26.15
2022-08-10T11:12:02.007Z,26.82
2022-08-10T11:14:37.938Z,26.59
2022-08-10T11:17:33.041Z,26.99
2022-08-10T11:20:14.849Z,27.28
2022-08-10T11:23:23.668Z,27.56
2022-08-10T11:26:04.547Z,27.32
2022-08-10T11:28:45.032Z,27.09
2022-08-10T11:31:48.746Z,27.28
2022-08-10T11:34:48.949Z,27.13
2022-08-10T11:38:31.397Z,27.09
2022-08-10T11:40:39.404Z,26.99
2022-08-10T11:43:27.125Z,26.75
2022-08-10T11:46:27.666Z,26.78
2022-08-10T11:49:31.261Z,26.82
2022-08-10T11:52:27.682Z,26.72
2022-08-10T11:54:58.929Z,25.85
2022-08-10T11:57:54.733Z,25.96
2022-08-10T12:00:20.910Z,25.98
2022-08-10T12:02:57.012Z,26.06
2022-08-10T12:05:48.194Z,26.32
2022-08-10T12:10:11.058Z,26.43
2022-08-10T12:11:10.981Z,26.34
2022-08-10T12:14:21.525Z,26.48
2022-08-10T12:17:02.169Z,26.77
2022-08-10T12:20:04.784Z,26.92
2022-08-10T12:22:43.309Z,27.05
2022-08-10T12:25:56.797Z,26.78
2022-08-10T12:28:49.813Z,26.69
2022-08-10T12:31:26.887Z,26.62
2022-08-10T12:34:14.636Z,26.70
2022-08-10T12:36:50.752Z,26.63
2022-08-10T12:39:28.886Z,26.74
2022-08-10T12:42:08.756Z,26.89
2022-08-10T12:44:46.977Z,26.72
2022-08-10T12:47:28.478Z,26.79
2022-08-10T12:50:17.178Z,26.54
2022-08-10T12:53:40.138Z,26.57
2022-08-10T12:56:07.420Z,26.70
2022-08-10T12:59:00.116Z,26.59
2022-08-10T13:02:06.305Z,26.49
2022-08-10T13:04:29.811Z,26.20
2022-08-10T13:07:04.671Z,26.25
2022-08-10T13:09:34.669Z,26.49
2022-08-10T13:12:39.329Z,26.35
2022-08-10T13:15:48.614Z,26.45
2022-08-10T13:18:19.645Z,26.55
2022-08-10T13:20:54.369Z,26.43
2022-08-10T13:23:26.853Z,26.39
2022-08-10T13:25:58.137Z,26.30
2022-08-10T13:28:54.141Z,26.38
2022-08-10T13:32:04.003Z,26.65
2022-08-10T13:34:42.809Z,26.70
2022-08-10T13:37:17.017Z,26.72
2022-08-10T13:39:57.737Z,26.96
2022-08-10T13:42:33.846Z,26.94
2022-08-10T13:45:10.320Z,27.00
2022-08-10T13:47:49.007Z,27.12
2022-08-10T13:50:33.724Z,27.22
2022-08-10T13:53:13.192Z,27.13
2022-08-10T13:55:54.853Z,27.08
2022-08-10T13:58:30.733Z,27.35
2022-08-10T14:01:03.010Z,27.37
2022-08-10T14:03:37.899Z,26.87
2022-08-10T14:06:07.461Z,27.07
2022-08-10T14:08:36.045Z,27.07
2022-08-10T14:11:12.445Z,27.35
2022-08-10T14:13:51.608Z,27.31
2022-08-10T14:16:20.656Z,27.13
2022-08-10T14:18:53.092Z,27.27
2022-08-10T14:21:20.681Z,27.06
2022-08-10T14:23:52.830Z,27.23
2022-08-10T14:26:31.134Z,27.58
2022-08-10T14:29:19.691Z,27.71
2022-08-10T14:32:01.686Z,28.06
2022-08-10T14:36:15.311Z,27.96
2022-08-10T14:37:37.831Z,27.68
2022-08-10T14:40:14.782Z,27.82
2022-08-10T14:42:51.466Z,28.04
2022-08-10T14:45:32.799Z,28.27
2022-08-10T14:48:23.594Z,28.83
2022-08-10T14:51:00.942Z,29.17
2022-08-10T14:53:36.875Z,29.13
2022-08-10T14:56:13.481Z,28.14
2022-08-10T14:59:15.465Z,27.23
2022-08-10T15:02:39.014Z,27.65
2022-08-10T15:04:37.426Z,28.28
2022-08-10T15:07:20.859Z,28.00
2022-08-10T15:10:00.765Z,27.83
2022-08-10T15:12:35.982Z,27.70
2022-08-10T15:15:08.349Z,27.93
2022-08-10T15:17:41.898Z,28.19
2022-08-10T15:20:24.967Z,28.15
2022-08-10T15:22:59.783Z,27.91
2022-08-10T15:25:29.004Z,27.46
2022-08-10T15:28:18.645Z,27.74
2022-08-10T15:30:53.760Z,28.03
2022-08-10T15:34:04.466Z,28.20
2022-08-10T15:37:02.198Z,28.91
2022-08-10T15:40:25.616Z,28.92
2022-08-10T15:42:52.601Z,28.83
2022-08-10T15:45:19.890Z,29.28
2022-08-10T15:48:03.051Z,28.92
2022-08-10T15:50:45.337Z,28.93
2022-08-10T15:53:23.188Z,28.81
2022-08-10T15:56:07.917Z,29.29
2022-08-10T15:59:14.264Z,29.37
2022-08-10T16:02:13.463Z,28.46
2022-08-10T16:04:59.391Z,28.66
2022-08-10T16:07:46.050Z,28.95
2022-08-10T16:10:28.079Z,28.95
2022-08-10T16:13:50.720Z,28.96
2022-08-10T16:16:01.895Z,29.01
2022-08-10T16:18:34.519Z,28.84
2022-08-10T16:21:08.272Z,28.50
2022-08-10T16:23:40.769Z,28.48
2022-08-10T16:26:15.557Z,28.52
2022-08-10T16:29:10.385Z,28.34
2022-08-10T16:31:49.225Z,28.06
2022-08-10T16:34:17.875Z,28.01
2022-08-10T16:37:03.293Z,27.70
2022-08-10T16:39:58.530Z,27.38
2022-08-10T16:42:32.570Z,27.47
2022-08-10T16:45:36.968Z,27.31
2022-08-10T16:48:05.817Z,27.29
2022-08-10T16:50:41.760Z,27.26
2022-08-10T16:53:20.007Z,26.90
2022-08-10T16:56:08.676Z,26.94
2022-08-10T16:58:45.883Z,27.02
2022-08-10T17:01:23.108Z,26.91
2022-08-10T17:04:07.171Z,26.73
2022-08-10T17:06:51.403Z,26.87
2022-08-10T17:09:33.463Z,26.98
2022-08-10T17:12:15.778Z,26.88
2022-08-10T17:14:44.309Z,26.75
2022-08-10T17:17:33.087Z,26.79
2022-08-10T17:20:30.265Z,26.67
2022-08-10T17:22:57.144Z,26.53
2022-08-10T17:25:48.494Z,26.53
2022-08-10T17:28:34.748Z,26.46
2022-08-10T17:31:24.148Z,26.41
2022-08-10T17:34:16.886Z,26.37
2022-08-10T17:36:57.271Z,26.41
2022-08-10T17:39:34.020Z,26.50
2022-08-10T17:42:02.556Z,26.45
2022-08-10T17:44:35.788Z,26.28
2022-08-10T17:47:11.115Z,26.21
2022-08-10T17:49:40.860Z,26.01
2022-08-10T17:52:11.034Z,25.87
2022-08-10T17:54:46.870Z,25.66
2022-08-10T17:57:21.110Z,25.65
2022-08-10T17:59:51.688Z,25.54
2022-08-10T18:02:25.255Z,25.45
2022-08-10T18:04:57.437Z,25.38
2022-08-10T18:07:38.622Z,25.23
2022-08-10T18:10:11.413Z,25.08
2022-08-10T18:12:55.222Z,25.03
2022-08-10T18:15:28.798Z,25.00
2022-08-10T18:18:01.010Z,24.85
2022-08-10T18:20:38.643Z,24.75
2022-08-10T18:23:08.603Z,24.66
2022-08-10T18:25:39.590Z,24.44
2022-08-10T18:28:12.458Z,24.23
2022-08-10T18:30:51.450Z,24.17
2022-08-10T18:33:25.739Z,24.08
2022-08-10T18:35:55.369Z,23.94
2022-08-10T18:38:26.048Z,23.94
2022-08-10T18:41:04.219Z,23.81
2022-08-10T18:44:07.125Z,23.64
2022-08-10T18:46:46.148Z,23.32
2022-08-10T18:49:26.157Z,23.25
2022-08-10T18:52:02.261Z,23.32
2022-08-10T18:54:44.876Z,23.33
2022-08-10T18:57:37.939Z,23.24
2022-08-10T19:00:19.121Z,22.99
2022-08-10T19:03:13.819Z,22.84
2022-08-10T19:06:20.575Z,22.71
2022-08-10T19:09:46.583Z,22.67
2022-08-10T19:12:48.577Z,22.61
2022-08-10T19:15:40.443Z,22.44
2022-08-10T19:18:54.871Z,22.39
2022-08-10T19:21:45.144Z,22.33
2022-08-10T19:24:26.377Z,22.19
2022-08-10T19:27:47.271Z,21.99
2022-08-10T19:30:17.913Z,21.94
2022-08-10T19:33:25.209Z,21.99
2022-08-10T19:36:15.592Z,21.97
2022-08-10T19:38:52.481Z,21.93
2022-08-10T19:41:42.185Z,21.82
2022-08-10T19:44:39.867Z,21.58
2022-08-10T19:47:25.024Z,21.26
2022-08-10T19:50:26.376Z,21.29
2022-08-10T19:53:36.525Z,21.19
2022-08-10T19:56:33.630Z,21.22
2022-08-10T20:00:19.104Z,21.12
2022-08-10T20:03:16.978Z,21.16
2022-08-10T20:06:15.338Z,21.26
2022-08-10T20:08:56.727Z,21.27
2022-08-10T20:11:47.780Z,21.15
2022-08-10T20:14:47.068Z,21.17
2022-08-10T20:17:51.191Z,21.15
2022-08-10T20:20:31.076Z,21.17
2022-08-10T20:23:26.262Z,21.16
2022-08-10T20:26:04.517Z,21.09
2022-08-10T20:28:42.466Z,21.09
2022-08-10T20:31:17.600Z,21.11
2022-08-10T20:34:01.255Z,21.07
2022-08-10T20:36:44.009Z,20.98
2022-08-10T20:39:27.329Z,20.85
2022-08-10T20:42:14.973Z,21.04
2022-08-10T20:44:58.946Z,21.12
2022-08-10T20:47:56.717Z,21.23
2022-08-10T20:50:48.318Z,21.35
2022-08-10T20:53:21.931Z,21.32
2022-08-10T20:55:54.603Z,21.36
2022-08-10T20:58:36.277Z,21.33
2022-08-10T21:02:05.710Z,21.34
2022-08-10T21:04:50.719Z,21.26
2022-08-10T21:11:07.414Z,21.30
2022-08-10T21:14:12.674Z,21.18
2022-08-10T21:17:05.326Z,21.09
2022-08-10T21:20:08.004Z,21.07
2022-08-10T21:22:44.873Z,21.03
2022-08-10T21:25:29.522Z,21.01
2022-08-10T21:28:08.916Z,20.92
2022-08-10T21:31:25.979Z,20.85
2022-08-10T21:34:20.561Z,20.76
2022-08-10T21:37:20.489Z,20.70
2022-08-10T21:40:35.519Z,20.64
2022-08-10T21:43:58.970Z,20.52
2022-08-10T21:47:40.005Z,20.48
2022-08-10T21:50:27.623Z,20.47
2022-08-10T21:53:43.695Z,20.43
2022-08-10T21:57:12.237Z,20.37
2022-08-10T22:00:20.196Z,20.32
2022-08-10T22:03:10.138Z,20.29
2022-08-10T22:05:59.071Z,20.22
2022-08-10T22:09:04.969Z,20.20
2022-08-10T22:12:00.919Z,20.12
2022-08-10T22:14:52.718Z,20.11
2022-08-10T22:17:59.678Z,20.12
2022-08-10T22:21:02.294Z,20.06
2022-08-10T22:24:22.370Z,19.96
2022-08-10T22:27:48.038Z,20.00
2022-08-10T22:30:37.093Z,19.96
2022-08-10T22:34:10.930Z,19.92
2022-08-10T22:37:31.567Z,19.87
2022-08-10T22:40:36.930Z,19.78
2022-08-10T22:43:36.510Z,19.68
2022-08-10T22:46:46.281Z,19.73
2022-08-10T22:49:23.929Z,19.67
2022-08-10T22:52:02.567Z,19.55
2022-08-10T22:55:12.240Z,19.55
2022-08-10T22:58:09.420Z,19.51
2022-08-10T23:00:37.830Z,19.43
2022-08-10T23:03:16.480Z,19.38
2022-08-10T23:06:00.318Z,19.36
2022-08-10T23:08:56.773Z,19.31
2022-08-10T23:11:44.935Z,19.21
2022-08-10T23:14:14.831Z,19.13
2022-08-10T23:17:11.303Z,19.10
2022-08-10T23:20:08.431Z,19.10
2022-08-10T23:22:56.262Z,19.08
2022-08-10T23:25:30.235Z,19.03
2022-08-10T23:28:12.580Z,18.97
2022-08-10T23:30:45.093Z,18.91
2022-08-10T23:33:14.700Z,18.95
2022-08-10T23:36:31.443Z,18.86
2022-08-10T23:38:42.669Z,18.98
2022-08-10T23:41:11.791Z,18.97
2022-08-10T23:44:03.237Z,18.90
2022-08-10T23:46:37.612Z,18.91
2022-08-10T23:49:10.304Z,18.88
2022-08-10T23:51:56.251Z,18.81
2022-08-10T23:54:26.473Z,18.84
2022-08-10T23:57:00.991Z,18.96
2022-08-10T23:59:32.751Z,18.93
